Time;durP1;ratioP1;P1;durP2;ratioP2;P2;SDS_P1;SDS_P2;PMS_P1;PMS_P2;Temp;Humidity;BMP_temperature;BMP_pressure;BME280_temperature;BME280_humidity;BME280_pressure;Samples;Min_cycle;Max_cycle;Signal;HPM_P1;HPM_P2
2023/05/26 00:00:54;;;;;;;52.72;26.55;;;;;;;14.91;100.00;99306.47;5033768;28;20043;-47
2023/05/26 00:03:20;;;;;;;74.20;30.63;;;;;;;14.86;100.00;99292.81;5087870;28;20720;-48
2023/05/26 00:05:46;;;;;;;48.33;25.50;;;;;;;14.91;100.00;99303.00;5067035;28;20044;-50
2023/05/26 00:08:12;;;;;;;57.05;27.35;;;;;;;14.75;100.00;99275.13;5087955;28;20043;-47
2023/05/26 00:10:37;;;;;;;61.15;27.55;;;;;;;14.88;100.00;99297.94;5087683;28;20040;-49
2023/05/26 00:13:04;;;;;;;57.38;27.17;;;;;;;14.78;100.00;99290.63;5070780;28;20118;-47
2023/05/26 00:15:30;;;;;;;57.92;27.50;;;;;;;14.87;100.00;99306.72;5082554;28;20044;-49
2023/05/26 00:18:01;;;;;;;73.88;30.63;;;;;;;14.83;100.00;99306.91;5071281;28;20121;-45
2023/05/26 00:20:29;;;;;;;59.30;27.67;;;;;;;14.72;100.00;99287.50;5071475;28;20055;-46
2023/05/26 00:22:55;;;;;;;59.13;27.13;;;;;;;14.87;100.00;99307.56;5088896;28;20052;-47
2023/05/26 00:25:22;;;;;;;61.28;28.85;;;;;;;14.88;100.00;99309.25;5089122;28;20507;-50
2023/05/26 00:27:48;;;;;;;64.28;29.67;;;;;;;14.90;100.00;99312.63;5071216;28;20051;-47
2023/05/26 00:30:14;;;;;;;74.85;31.52;;;;;;;14.86;100.00;99311.13;5088615;28;20043;-48
2023/05/26 00:32:40;;;;;;;63.88;29.77;;;;;;;14.67;100.00;99286.94;5088990;28;20035;-46
2023/05/26 00:35:08;;;;;;;76.57;31.17;;;;;;;14.83;100.00;99321.75;5070325;28;20040;-46
2023/05/26 00:37:34;;;;;;;78.43;31.92;;;;;;;14.82;100.00;99326.16;5079861;28;20036;-47
2023/05/26 00:40:00;;;;;;;72.60;31.25;;;;;;;14.79;100.00;99321.09;5069183;28;20044;-50
2023/05/26 00:42:26;;;;;;;69.60;29.20;;;;;;;14.76;100.00;99323.88;5087005;28;20040;-51
2023/05/26 00:44:52;;;;;;;61.75;27.95;;;;;;;14.61;100.00;99301.22;5068768;28;20043;-45
2023/05/26 00:47:18;;;;;;;76.00;30.27;;;;;;;14.71;100.00;99320.69;5069117;28;20087;-51
2023/05/26 00:49:45;;;;;;;84.38;33.03;;;;;;;14.56;100.00;99295.41;5070122;28;20043;-49
2023/05/26 00:52:12;;;;;;;78.47;33.05;;;;;;;14.69;100.00;99319.09;5050849;28;20133;-48
2023/05/26 00:54:39;;;;;;;85.22;32.88;;;;;;;14.67;100.00;99313.09;5048743;28;20073;-47
2023/05/26 00:57:06;;;;;;;76.13;32.67;;;;;;;14.66;100.00;99316.63;5083608;28;20054;-51
2023/05/26 00:59:32;;;;;;;48.85;24.77;;;;;;;14.64;100.00;99310.66;5051855;28;20044;-47
2023/05/26 01:01:58;;;;;;;58.13;27.17;;;;;;;14.69;100.00;99313.88;5068475;28;20109;-46
2023/05/26 01:04:24;;;;;;;84.88;33.70;;;;;;;14.71;100.00;99312.84;5088318;28;20126;-45
2023/05/26 01:06:50;;;;;;;159.63;49.35;;;;;;;14.71;100.00;99315.44;5070091;28;20123;-49
2023/05/26 01:09:16;;;;;;;146.90;50.05;;;;;;;14.73;100.00;99310.13;5088521;28;20534;-50
2023/05/26 01:11:52;;;;;;;69.03;30.65;;;;;;;14.70;100.00;99311.16;5068101;28;20097;-46
2023/05/26 01:14:29;;;;;;;94.45;36.15;;;;;;;14.68;100.00;99317.41;5068325;28;20483;-46
2023/05/26 01:16:59;;;;;;;77.57;32.22;;;;;;;14.68;100.00;99320.03;5052528;28;20390;-49
2023/05/26 01:19:40;;;;;;;56.30;25.00;;;;;;;14.66;100.00;99316.63;5068735;28;20051;-49
2023/05/26 01:22:19;;;;;;;55.40;24.95;;;;;;;14.65;100.00;99328.06;5051642;28;20051;-44
2023/05/26 01:25:27;;;;;;;65.75;27.77;;;;;;;14.62;100.00;99330.84;5069369;28;20044;-48
2023/05/26 01:27:59;;;;;;;45.13;22.23;;;;;;;14.57;100.00;99332.88;5073814;28;20055;-48
2023/05/26 01:30:25;;;;;;;36.58;20.88;;;;;;;14.51;100.00;99325.34;5083214;28;20036;-46
2023/05/26 01:32:52;;;;;;;36.42;21.80;;;;;;;14.52;100.00;99327.06;5087719;28;20052;-51
2023/05/26 01:35:18;;;;;;;36.70;20.90;;;;;;;14.50;100.00;99323.69;5084379;28;20065;-47
2023/05/26 01:37:45;;;;;;;39.75;21.38;;;;;;;14.47;100.00;99324.69;5085917;28;20042;-48
2023/05/26 01:40:11;;;;;;;38.67;21.67;;;;;;;14.46;100.00;99324.78;5060890;28;20039;-45
2023/05/26 01:42:41;;;;;;;39.13;21.60;;;;;;;14.46;100.00;99327.38;5083864;28;20089;-45
2023/05/26 01:45:12;;;;;;;38.45;22.42;;;;;;;14.45;100.00;99323.06;5033117;28;20040;-45
2023/05/26 01:47:42;;;;;;;33.80;19.98;;;;;;;14.46;100.00;99319.53;5052015;28;20046;-49
2023/05/26 01:50:08;;;;;;;38.78;21.95;;;;;;;14.46;100.00;99317.78;5057518;28;20419;-45
2023/05/26 01:52:37;;;;;;;35.65;20.95;;;;;;;14.48;100.00;99325.53;5057503;28;20057;-50
2023/05/26 01:55:07;;;;;;;33.88;20.35;;;;;;;14.35;100.00;99304.41;5030820;28;20526;-46
2023/05/26 01:57:34;;;;;;;30.73;18.92;;;;;;;14.49;100.00;99333.31;5044699;28;20049;-47
2023/05/26 02:00:00;;;;;;;29.15;18.80;;;;;;;14.53;100.00;99329.59;5045576;28;20036;-46
2023/05/26 02:02:27;;;;;;;30.38;18.08;;;;;;;14.54;100.00;99331.28;5011686;28;20036;-45
2023/05/26 02:04:53;;;;;;;28.55;19.15;;;;;;;14.55;100.00;99324.28;5045395;28;20045;-47
2023/05/26 02:07:19;;;;;;;31.52;18.40;;;;;;;14.54;100.00;99331.28;5044522;28;20033;-46
2023/05/26 02:09:46;;;;;;;34.35;18.83;;;;;;;14.33;100.00;99298.44;5045223;28;20078;-48
2023/05/26 02:12:13;;;;;;;30.52;18.90;;;;;;;14.42;100.00;99311.03;5029011;28;20063;-45
2023/05/26 02:14:39;;;;;;;30.15;19.30;;;;;;;14.55;100.00;99335.56;5046435;28;20037;-50
2023/05/26 02:17:06;;;;;;;29.98;18.70;;;;;;;14.56;100.00;99336.41;5027006;28;20048;-49
2023/05/26 02:19:52;;;;;;;30.55;19.67;;;;;;;14.45;100.00;99316.06;5032384;28;20041;-48
2023/05/26 02:22:18;;;;;;;28.85;18.50;;;;;;;14.58;100.00;99334.56;5029524;28;20106;-49
2023/05/26 02:24:46;;;;;;;26.77;19.13;;;;;;;14.57;100.00;99341.56;5045348;28;20041;-48
2023/05/26 02:27:12;;;;;;;28.05;17.92;;;;;;;14.55;100.00;99330.31;5051252;28;20051;-47
2023/05/26 02:29:38;;;;;;;31.02;19.02;;;;;;;14.56;100.00;99342.47;5029686;28;20504;-49
2023/05/26 02:32:05;;;;;;;28.50;18.30;;;;;;;14.41;100.00;99310.19;5045162;28;20052;-48
2023/05/26 02:34:31;;;;;;;30.80;18.58;;;;;;;14.57;100.00;99338.09;5043514;28;20044;-46
2023/05/26 02:36:57;;;;;;;28.58;19.48;;;;;;;14.58;100.00;99340.63;5045204;28;20041;-48
2023/05/26 02:39:23;;;;;;;27.33;18.35;;;;;;;14.60;100.00;99335.31;5049511;28;20397;-52
2023/05/26 02:41:49;;;;;;;26.20;18.45;;;;;;;14.63;100.00;99335.13;5050386;28;20102;-51
2023/05/26 02:44:15;;;;;;;28.50;18.77;;;;;;;14.66;100.00;99342.81;5049297;28;20051;-54
2023/05/26 02:46:41;;;;;;;29.75;18.60;;;;;;;14.71;100.00;99343.38;5049646;28;20045;-50
2023/05/26 02:49:07;;;;;;;29.00;17.65;;;;;;;14.72;100.00;99343.31;5046513;28;20048;-50
2023/05/26 02:51:35;;;;;;;28.20;18.17;;;;;;;14.80;100.00;99348.97;5049602;28;20516;-47
2023/05/26 02:54:01;;;;;;;26.77;18.58;;;;;;;14.58;100.00;99311.00;5049422;28;20072;-46
2023/05/26 02:56:27;;;;;;;26.85;17.45;;;;;;;14.91;100.00;99350.13;5048678;28;20059;-48
2023/05/26 02:58:54;;;;;;;27.38;17.63;;;;;;;14.94;100.00;99353.41;5049915;28;20049;-52
2023/05/26 03:01:21;;;;;;;25.20;17.70;;;;;;;15.01;100.00;99348.66;5048666;28;20131;-46
2023/05/26 03:03:47;;;;;;;26.10;17.83;;;;;;;15.08;100.00;99345.59;5048736;28;20045;-49
2023/05/26 03:06:13;;;;;;;33.08;22.85;;;;;;;15.15;100.00;99348.69;5048232;28;20041;-48
2023/05/26 03:08:41;;;;;;;29.67;18.88;;;;;;;15.20;100.00;99350.13;5016950;28;20041;-47
2023/05/26 03:11:06;;;;;;;25.83;18.13;;;;;;;15.26;100.00;99349.75;5047681;28;20051;-49
2023/05/26 03:13:32;;;;;;;28.02;19.10;;;;;;;15.14;100.00;99331.28;5049310;28;20029;-54
2023/05/26 03:15:59;;;;;;;28.70;19.00;;;;;;;15.35;100.00;99358.84;5047724;28;20390;-49
2023/05/26 03:18:25;;;;;;;25.83;17.90;;;;;;;15.27;100.00;99343.59;5031524;28;20036;-52
2023/05/26 03:21:02;;;;;;;;;;;;;;;;;;;;;
2023/05/26 03:23:29;;;;;;;24.75;18.17;;;;;;;15.48;100.00;99359.81;5048329;28;20578;-51
2023/05/26 03:25:56;;;;;;;26.75;19.10;;;;;;;15.53;100.00;99363.03;5049673;28;20122;-50
2023/05/26 03:28:25;;;;;;;25.63;17.40;;;;;;;15.58;100.00;99363.63;5063163;28;20759;-49
2023/05/26 03:30:52;;;;;;;21.58;16.27;;;;;;;15.65;100.00;99372.78;5048946;28;20540;-49
2023/05/26 03:33:18;;;;;;;21.85;15.38;;;;;;;15.70;100.00;99363.81;5030108;28;20516;-46
2023/05/26 03:35:46;;;;;;;21.92;16.05;;;;;;;15.76;100.00;99368.66;5046023;28;20119;-50
2023/05/26 03:38:13;;;;;;;20.67;16.10;;;;;;;15.82;100.00;99371.75;5011837;28;20049;-48
2023/05/26 03:40:41;;;;;;;23.58;17.05;;;;;;;15.88;100.00;99365.31;5028970;28;20037;-50
2023/05/26 03:43:07;;;;;;;22.45;16.95;;;;;;;15.93;100.00;99371.09;5047034;28;20075;-47
2023/05/26 03:45:42;;;;;;;20.88;15.48;;;;;;;15.99;100.00;99366.34;5048806;28;20432;-48
2023/05/26 03:48:12;;;;;;;21.43;15.93;;;;;;;16.00;100.00;99362.78;5030771;28;20068;-46
2023/05/26 03:50:40;;;;;;;20.67;14.57;;;;;;;16.13;100.00;99372.50;5048873;28;20055;-47
2023/05/26 03:53:06;;;;;;;21.58;14.57;;;;;;;16.08;100.00;99350.03;5064894;28;20130;-48
2023/05/26 03:55:36;;;;;;;19.65;14.63;;;;;;;16.27;100.00;99359.38;5068550;28;20052;-50
2023/05/26 03:58:04;;;;;;;21.80;15.00;;;;;;;16.32;100.00;99360.78;5067301;28;20052;-47
2023/05/26 04:00:32;;;;;;;18.80;14.05;;;;;;;16.30;100.00;99346.06;5084903;28;20043;-53
2023/05/26 04:02:59;;;;;;;17.05;13.82;;;;;;;16.45;100.00;99363.47;5082267;28;20101;-47
2023/05/26 04:05:26;;;;;;;18.90;14.40;;;;;;;16.45;100.00;99342.47;5068474;28;20044;-47
2023/05/26 04:07:53;;;;;;;18.10;13.52;;;;;;;16.64;100.00;99361.41;5050965;28;20048;-51
2023/05/26 04:10:20;;;;;;;15.73;13.02;;;;;;;16.58;100.00;99343.38;5069032;28;20032;-50
2023/05/26 04:12:46;;;;;;;41.47;29.33;;;;;;;16.63;100.00;99343.97;5065550;28;20052;-55
2023/05/26 04:15:12;;;;;;;20.17;13.05;;;;;;;16.84;100.00;99363.56;5050532;28;20429;-52
2023/05/26 04:17:38;;;;;;;18.48;13.70;;;;;;;16.93;99.62;99370.84;5046886;28;20044;-47
2023/05/26 04:20:07;;;;;;;18.48;13.50;;;;;;;17.00;98.80;99366.03;5069154;28;20098;-50
2023/05/26 04:22:32;;;;;;;21.27;14.13;;;;;;;17.07;98.26;99361.19;5066841;28;20040;-48
2023/05/26 04:25:00;;;;;;;20.63;13.45;;;;;;;17.15;97.36;99356.31;5051214;28;20047;-49
2023/05/26 04:27:46;;;;;;;20.33;12.98;;;;;;;17.24;96.29;99363.56;5064709;28;20106;-53
2023/05/26 04:30:39;;;;;;;15.50;13.30;;;;;;;17.33;95.21;99366.41;5057357;28;20040;-52
2023/05/26 04:33:25;;;;;;;19.58;13.13;;;;;;;17.43;94.58;99371.88;5066822;28;20048;-49
2023/05/26 04:36:16;;;;;;;17.20;13.32;;;;;;;17.54;93.76;99369.38;5044862;28;20056;-52
2023/05/26 04:38:45;;;;;;;17.27;11.65;;;;;;;17.40;92.57;99329.22;5068806;28;20043;-48
2023/05/26 04:41:11;;;;;;;18.33;12.27;;;;;;;17.60;92.06;99347.97;5033183;28;20519;-49
2023/05/26 04:43:38;;;;;;;16.15;11.68;;;;;;;17.63;91.23;99337.25;5071425;28;20048;-48
2023/05/26 04:46:04;;;;;;;13.65;11.38;;;;;;;17.88;89.69;99367.13;5048595;28;20047;-49
2023/05/26 04:48:31;;;;;;;16.95;11.15;;;;;;;17.95;88.50;99363.13;5065410;28;20560;-49
2023/05/26 04:50:57;;;;;;;12.88;9.48;;;;;;;18.07;87.59;99378.88;5032360;28;20043;-48
2023/05/26 04:53:23;;;;;;;18.90;12.00;;;;;;;18.15;86.68;99368.66;5051765;28;20707;-49
2023/05/26 04:55:49;;;;;;;21.02;10.25;;;;;;;18.25;86.14;99381.16;5044656;28;20041;-52
2023/05/26 04:58:16;;;;;;;15.00;9.90;;;;;;;18.35;85.08;99380.41;5044214;28;20624;-49
2023/05/26 05:00:42;;;;;;;12.88;8.82;;;;;;;18.49;83.59;99379.41;5010793;28;20422;-49
2023/05/26 05:03:42;;;;;;;12.55;9.52;;;;;;;18.61;81.64;99378.56;4984274;28;20111;-49
2023/05/26 05:06:14;;;;;;;13.35;9.10;;;;;;;18.71;80.41;99384.03;4952423;28;20070;-48
2023/05/26 05:08:41;;;;;;;17.00;8.75;;;;;;;18.79;79.77;99385.13;4970546;28;20084;-51
2023/05/26 05:11:07;;;;;;;10.70;9.27;;;;;;;18.86;78.95;99375.84;4986981;28;20042;-46
2023/05/26 05:13:33;;;;;;;14.82;9.10;;;;;;;18.97;78.76;99382.97;4953613;28;20070;-48
2023/05/26 05:16:00;;;;;;;12.23;8.13;;;;;;;19.08;78.50;99377.75;4951231;28;20545;-48
2023/05/26 05:18:26;;;;;;;10.77;7.45;;;;;;;19.18;77.46;99378.75;4984013;28;20073;-51
2023/05/26 05:20:52;;;;;;;10.95;7.97;;;;;;;19.31;76.97;99386.59;4970455;28;20075;-50
2023/05/26 05:23:18;;;;;;;12.63;7.97;;;;;;;19.40;76.14;99381.44;4962063;28;20497;-52
2023/05/26 05:25:45;;;;;;;12.23;7.93;;;;;;;19.51;75.44;99388.59;4984027;28;20058;-46
2023/05/26 05:28:11;;;;;;;7.63;5.80;;;;;;;19.45;74.51;99357.41;4968670;28;20046;-49
2023/05/26 05:30:43;;;;;;;7.60;5.80;;;;;;;19.60;72.30;99360.66;4944375;28;20137;-49
2023/05/26 05:33:08;;;;;;;12.07;6.93;;;;;;;19.85;71.89;99382.41;4966306;28;20140;-50
2023/05/26 05:35:35;;;;;;;10.32;6.53;;;;;;;19.97;70.21;99383.25;4966101;28;20061;-49
2023/05/26 05:38:03;;;;;;;9.40;6.20;;;;;;;20.13;69.67;99385.53;4968742;28;20042;-52
2023/05/26 05:40:29;;;;;;;9.68;6.35;;;;;;;20.23;69.10;99379.41;5046588;28;20106;-47
2023/05/26 05:42:55;;;;;;;6.88;4.93;;;;;;;20.39;69.07;99379.06;5012942;28;20571;-53
2023/05/26 05:45:21;;;;;;;6.50;5.50;;;;;;;20.53;67.87;99377.97;5030012;28;20086;-46
2023/05/26 05:48:13;;;;;;;8.82;6.13;;;;;;;20.69;66.87;99373.97;5028355;28;20049;-49
2023/05/26 05:50:52;;;;;;;8.65;5.18;;;;;;;20.81;66.72;99372.16;5026712;28;20037;-48
2023/05/26 05:53:17;;;;;;;7.65;5.57;;;;;;;20.92;66.12;99374.75;5078862;28;20569;-48
2023/05/26 05:55:46;;;;;;;7.57;4.97;;;;;;;20.96;65.24;99359.47;5076293;28;20040;-50
2023/05/26 05:58:13;;;;;;;11.45;8.93;;;;;;;21.19;64.09;99381.41;5081331;28;20454;-51
2023/05/26 06:00:40;;;;;;;6.22;5.28;;;;;;;21.29;63.51;99374.38;5086639;28;20574;-41
2023/05/26 06:03:06;;;;;;;9.15;5.93;;;;;;;21.41;62.61;99366.25;5039357;28;20058;-42
2023/05/26 06:05:32;;;;;;;6.35;5.32;;;;;;;21.52;61.33;99378.56;5076872;28;20410;-37
2023/05/26 06:07:58;;;;;;;10.82;6.53;;;;;;;21.67;60.81;99377.28;5036914;28;20036;-35
2023/05/26 06:10:24;;;;;;;11.48;5.32;;;;;;;21.70;60.96;99355.88;5086054;28;20528;-43
2023/05/26 06:12:50;;;;;;;7.40;4.97;;;;;;;22.01;59.50;99372.63;5072440;28;20040;-37
2023/05/26 06:15:17;;;;;;;8.18;5.05;;;;;;;22.16;58.90;99373.09;5076490;28;20046;-36
2023/05/26 06:17:43;;;;;;;8.82;5.28;;;;;;;22.36;58.62;99374.84;5076754;28;20571;-37
2023/05/26 06:20:10;;;;;;;13.40;5.05;;;;;;;22.58;57.84;99377.28;5077710;28;20042;-37
2023/05/26 06:22:38;;;;;;;6.03;5.00;;;;;;;22.73;56.60;99349.44;5079943;28;20511;-37
2023/05/26 06:25:05;;;;;;;5.30;4.80;;;;;;;23.08;55.85;99354.19;5068718;28;20514;-37
2023/05/26 06:27:31;;;;;;;8.75;6.30;;;;;;;23.52;54.83;99368.72;5056234;28;20124;-36
2023/05/26 06:29:57;;;;;;;7.13;4.43;;;;;;;23.94;53.27;99366.53;5072496;28;20044;-36
2023/05/26 06:32:23;;;;;;;6.45;4.80;;;;;;;24.53;51.37;99370.63;5073864;28;20139;-37
2023/05/26 06:34:49;;;;;;;16.45;7.28;;;;;;;25.24;49.96;99365.34;5070146;28;20119;-36
2023/05/26 06:37:15;;;;;;;10.50;4.90;;;;;;;26.05;48.36;99368.63;5037774;28;20041;-36
2023/05/26 06:39:41;;;;;;;5.65;4.13;;;;;;;26.94;43.93;99369.00;5069956;28;20127;-37
2023/05/26 06:42:12;;;;;;;9.50;4.60;;;;;;;27.78;42.28;99377.53;5053954;28;20519;-37
2023/05/26 06:44:38;;;;;;;8.38;3.83;;;;;;;28.53;39.67;99375.28;5065206;28;20068;-37
2023/05/26 06:47:04;;;;;;;6.10;4.00;;;;;;;29.14;38.34;99381.63;5053885;28;20397;-37
2023/05/26 06:49:34;;;;;;;9.13;3.80;;;;;;;30.04;37.04;99377.19;5067562;28;20432;-37
2023/05/26 06:52:11;;;;;;;8.57;4.50;;;;;;;30.56;35.31;99381.63;5072845;28;20116;-37
2023/05/26 06:54:38;;;;;;;8.90;4.53;;;;;;;31.64;34.52;99387.72;5073348;28;20038;-37
2023/05/26 06:57:04;;;;;;;18.02;5.10;;;;;;;32.49;33.33;99389.28;5040349;28;20452;-37
2023/05/26 06:59:30;;;;;;;6.57;4.00;;;;;;;33.29;31.20;99378.56;5091656;28;20032;-37
2023/05/26 07:01:57;;;;;;;3.80;3.25;;;;;;;34.12;29.13;99385.19;5073837;28;20052;-36
2023/05/26 07:04:24;;;;;;;7.10;3.90;;;;;;;35.15;28.17;99383.31;5039485;28;20059;-36
2023/05/26 07:06:50;;;;;;;11.93;4.53;;;;;;;36.10;27.05;99393.78;5072705;28;20043;-37
2023/05/26 07:09:21;;;;;;;22.95;4.70;;;;;;;36.89;26.08;99386.59;5091696;28;20040;-38
2023/05/26 07:11:55;;;;;;;4.32;3.65;;;;;;;37.32;24.06;99386.38;5091349;28;20044;-38
2023/05/26 07:14:39;;;;;;;4.28;3.88;;;;;;;37.45;22.91;99394.31;5091210;28;20031;-37
2023/05/26 07:17:05;;;;;;;5.28;4.40;;;;;;;37.12;23.23;99385.88;5056671;28;20048;-36
2023/05/26 07:19:31;;;;;;;7.20;4.68;;;;;;;38.04;23.33;99381.66;5056530;28;20066;-37
2023/05/26 07:21:58;;;;;;;12.82;5.10;;;;;;;38.77;23.09;99378.31;5073386;28;20062;-36
2023/05/26 07:24:25;;;;;;;6.03;4.38;;;;;;;38.77;22.23;99383.75;5066565;28;20500;-37
2023/05/26 07:26:51;;;;;;;6.07;4.40;;;;;;;38.07;22.25;99351.31;5073378;28;20055;-37
2023/05/26 07:29:17;;;;;;;8.38;4.22;;;;;;;37.33;22.93;99379.91;5072954;28;20437;-37
2023/05/26 07:31:43;;;;;;;4.68;4.22;;;;;;;38.09;21.90;99379.06;5056734;28;20050;-37
2023/05/26 07:34:10;;;;;;;5.18;4.13;;;;;;;38.57;21.75;99373.31;5055916;28;20578;-37
2023/05/26 07:36:36;;;;;;;8.65;4.80;;;;;;;39.13;21.75;99377.09;5055147;28;20040;-37
2023/05/26 07:39:03;;;;;;;8.57;4.30;;;;;;;39.39;20.89;99377.31;5072381;28;20072;-38
2023/05/26 07:41:29;;;;;;;8.02;4.53;;;;;;;38.98;20.75;99369.50;5072638;28;20529;-38
2023/05/26 07:43:55;;;;;;;5.55;4.15;;;;;;;38.39;20.69;99371.53;5073142;28;20039;-37
2023/05/26 07:46:21;;;;;;;10.80;4.50;;;;;;;39.16;20.96;99360.25;5090850;28;20431;-38
2023/05/26 07:48:47;;;;;;;4.63;4.18;;;;;;;39.71;20.02;99374.00;5039155;28;20422;-37
2023/05/26 07:51:14;;;;;;;8.33;5.20;;;;;;;40.25;20.21;99372.38;5091027;28;20043;-37
2023/05/26 07:53:40;;;;;;;5.63;4.50;;;;;;;40.97;19.73;99375.66;5090715;28;20063;-37
2023/05/26 07:56:06;;;;;;;8.05;4.97;;;;;;;40.15;20.18;99372.19;5089720;28;20109;-36
2023/05/26 07:58:32;;;;;;;5.40;4.80;;;;;;;39.66;20.19;99371.19;5072777;28;20062;-37
2023/05/26 08:00:58;;;;;;;9.98;5.00;;;;;;;39.28;20.78;99359.13;5090329;28;20036;-37
2023/05/26 08:03:24;;;;;;;8.75;5.35;;;;;;;40.29;19.89;99364.50;5090500;28;20035;-36
2023/05/26 08:05:50;;;;;;;4.65;4.20;;;;;;;40.44;20.18;99364.69;5072176;28;20422;-36
2023/05/26 08:08:16;;;;;;;8.45;4.97;;;;;;;40.98;19.57;99354.66;5072294;28;20063;-37
2023/05/26 08:10:42;;;;;;;7.75;5.22;;;;;;;41.70;18.96;99363.22;5089810;28;20040;-37
2023/05/26 08:13:09;;;;;;;5.45;4.95;;;;;;;41.65;19.09;99355.00;5090121;28;20431;-36
2023/05/26 08:15:35;;;;;;;5.03;4.63;;;;;;;41.08;18.50;99362.97;5072618;28;20040;-37
2023/05/26 08:18:00;;;;;;;5.50;5.00;;;;;;;40.12;19.20;99359.91;5089309;28;20101;-37
2023/05/26 08:20:26;;;;;;;6.03;4.80;;;;;;;39.69;20.13;99346.19;5072200;28;20039;-37
2023/05/26 08:22:53;;;;;;;5.13;4.63;;;;;;;40.00;19.70;99355.63;5072091;28;20119;-37
2023/05/26 08:25:18;;;;;;;8.52;4.70;;;;;;;38.73;20.73;99347.25;5090096;28;20042;-37
2023/05/26 08:27:45;;;;;;;8.10;4.78;;;;;;;37.43;22.03;99344.06;5089509;28;20914;-37
2023/05/26 08:30:11;;;;;;;9.35;4.68;;;;;;;36.93;22.31;99349.84;5089739;28;20040;-36
2023/05/26 08:32:38;;;;;;;5.78;4.82;;;;;;;38.29;21.59;99344.19;5071463;28;20561;-37
2023/05/26 08:35:04;;;;;;;5.53;4.85;;;;;;;38.95;20.85;99323.72;5088928;28;20039;-38
2023/05/26 08:37:30;;;;;;;7.07;4.68;;;;;;;40.27;20.17;99348.41;5089648;28;20044;-37
2023/05/26 08:39:59;;;;;;;6.28;4.90;;;;;;;40.16;19.49;99352.03;5070487;28;20036;-36
2023/05/26 08:42:31;;;;;;;7.50;4.68;;;;;;;39.94;19.52;99346.56;5071286;28;20035;-37
2023/05/26 08:44:57;;;;;;;8.25;4.43;;;;;;;36.26;23.08;99346.34;5089739;28;20118;-37
2023/05/26 08:47:24;;;;;;;5.43;4.82;;;;;;;34.33;24.73;99335.53;5071651;28;20036;-37
2023/05/26 08:49:54;;;;;;;7.40;4.25;;;;;;;35.66;23.73;99329.88;5070992;28;20464;-38
2023/05/26 08:52:22;;;;;;;5.15;4.65;;;;;;;36.73;21.77;99327.63;5088548;28;20068;-39
2023/05/26 08:54:48;;;;;;;;;;;;;;;37.20;21.87;99320.47;5066525;28;20044;-37
2023/05/26 08:57:15;;;;;;;7.05;4.22;;;;;;;38.91;20.78;99317.97;5068167;28;20402;-38
2023/05/26 08:59:41;;;;;;;5.65;4.60;;;;;;;40.30;19.82;99328.84;5088151;28;20063;-38
2023/05/26 09:02:09;;;;;;;8.93;4.40;;;;;;;41.37;18.67;99328.81;5059650;28;20122;-39
2023/05/26 09:04:35;;;;;;;5.65;4.55;;;;;;;40.59;18.55;99318.50;5092265;28;20032;-38
2023/05/26 09:07:01;;;;;;;6.15;4.25;;;;;;;40.47;18.62;99317.81;5099131;28;20044;-39
2023/05/26 09:09:27;;;;;;;8.25;4.70;;;;;;;38.88;19.95;99315.72;5073328;28;20047;-37
2023/05/26 09:11:54;;;;;;;6.15;4.63;;;;;;;40.31;18.45;99324.19;5069521;28;20471;-36
2023/05/26 09:14:21;;;;;;;8.48;6.20;;;;;;;41.49;18.07;99316.94;5087908;28;20040;-36
2023/05/26 09:16:47;;;;;;;5.03;4.47;;;;;;;39.71;19.04;99308.66;5087603;28;20044;-35
2023/05/26 09:19:14;;;;;;;14.43;5.05;;;;;;;38.98;19.28;99304.22;5071954;28;20043;-38
2023/05/26 09:21:49;;;;;;;;;;;;;;;39.36;19.06;99304.31;5092449;28;20449;-36
2023/05/26 09:24:18;;;;;;;8.57;5.07;;;;;;;39.52;18.83;99299.94;5088860;28;20419;-36
2023/05/26 09:26:45;;;;;;;5.85;4.78;;;;;;;38.77;19.44;99303.03;5069342;28;20035;-35
2023/05/26 09:29:12;;;;;;;5.78;4.60;;;;;;;39.18;19.10;99301.84;5071733;28;20036;-35
2023/05/26 09:31:38;;;;;;;4.55;4.15;;;;;;;37.82;20.10;99291.84;5093115;28;20039;-35
2023/05/26 09:34:05;;;;;;;14.30;5.53;;;;;;;37.46;20.60;99290.19;5069050;28;20108;-35
2023/05/26 09:36:36;;;;;;;10.73;5.37;;;;;;;39.14;19.70;99286.25;5077037;28;20131;-36
2023/05/26 09:39:03;;;;;;;6.28;4.90;;;;;;;40.59;18.36;99296.69;5108791;28;20047;-36
2023/05/26 09:41:40;;;;;;;7.68;4.90;;;;;;;42.21;17.45;99265.97;5100982;28;20067;-34
2023/05/26 09:44:07;;;;;;;5.72;5.20;;;;;;;42.06;17.82;99265.91;5071172;28;20085;-35
2023/05/26 09:46:34;;;;;;;6.10;4.72;;;;;;;43.00;16.75;99289.38;5093634;28;20073;-37
2023/05/26 09:49:00;;;;;;;5.13;4.50;;;;;;;42.36;16.72;99269.84;5077406;28;20063;-36
2023/05/26 09:51:30;;;;;;;7.32;4.97;;;;;;;40.79;17.53;99275.13;5071951;28;20328;-35
2023/05/26 09:53:56;;;;;;;5.43;4.60;;;;;;;41.80;17.17;99266.88;5090265;28;20051;-35
2023/05/26 09:56:24;;;;;;;14.23;5.32;;;;;;;43.00;16.66;99281.16;5066594;28;20067;-35
2023/05/26 09:58:51;;;;;;;7.35;3.88;;;;;;;41.30;16.92;99273.63;5078479;28;20340;-35
2023/05/26 10:01:18;;;;;;;9.13;4.05;;;;;;;37.90;18.64;99264.31;5063943;28;20034;-34
2023/05/26 10:03:45;;;;;;;8.32;4.47;;;;;;;35.22;21.57;99276.00;5079500;28;20462;-35
2023/05/26 10:06:11;;;;;;;11.60;3.93;;;;;;;34.08;22.58;99272.47;5098656;28;20065;-35
2023/05/26 10:08:39;;;;;;;6.05;3.63;;;;;;;33.26;23.90;99289.22;5095432;28;20115;-36
2023/05/26 10:11:05;;;;;;;9.77;3.90;;;;;;;32.30;25.27;99285.91;5088262;28;20036;-36
2023/05/26 10:13:32;;;;;;;8.15;3.28;;;;;;;31.47;26.41;99298.44;5074857;28;20044;-34
2023/05/26 10:15:58;;;;;;;6.30;3.90;;;;;;;30.44;28.42;99307.94;5095222;28;20100;-35
2023/05/26 10:18:24;;;;;;;10.02;4.22;;;;;;;29.61;31.63;99311.78;5089412;28;20534;-34
2023/05/26 10:20:50;;;;;;;14.05;4.40;;;;;;;28.96;33.99;99309.66;5086125;28;20036;-34
2023/05/26 10:23:28;;;;;;;10.55;4.32;;;;;;;28.36;36.48;99314.88;5058424;28;20055;-35
2023/05/26 10:26:17;;;;;;;7.93;4.10;;;;;;;27.75;38.37;99321.75;5075727;28;20048;-34
2023/05/26 10:29:13;;;;;;;12.25;5.57;;;;;;;27.02;41.08;99328.13;5078806;28;20059;-35
2023/05/26 10:31:40;;;;;;;9.50;4.03;;;;;;;26.27;42.23;99280.16;5087539;28;20131;-34
2023/05/26 10:34:14;;;;;;;6.40;3.72;;;;;;;26.01;43.27;99316.66;5069177;28;20048;-34
2023/05/26 10:36:41;;;;;;;6.57;3.65;;;;;;;25.68;44.54;99320.97;5069004;28;20040;-34
2023/05/26 10:39:11;;;;;;;7.30;3.33;;;;;;;25.20;46.12;99297.47;5069491;28;20101;-36
2023/05/26 10:41:39;;;;;;;5.85;3.60;;;;;;;25.00;46.58;99306.63;5068400;28;20058;-35
2023/05/26 10:44:05;;;;;;;;;;;;;;;24.67;46.69;99306.28;5075265;28;20159;-35
2023/05/26 10:46:45;;;;;;;6.97;3.70;;;;;;;24.41;48.40;99306.19;5070805;28;20039;-34
2023/05/26 10:49:21;;;;;;;9.75;4.70;;;;;;;24.19;49.68;99300.44;5061630;28;20050;-35
2023/05/26 10:51:54;;;;;;;7.47;4.43;;;;;;;24.11;50.04;99301.16;5093506;28;20043;-34
2023/05/26 10:54:24;;;;;;;9.30;4.30;;;;;;;23.88;50.02;99271.50;5095652;28;20039;-37
2023/05/26 10:56:54;;;;;;;7.45;4.35;;;;;;;24.01;50.13;99297.72;5051164;28;20082;-34
2023/05/26 10:59:33;;;;;;;6.20;3.65;;;;;;;23.77;48.00;99252.25;5074763;28;20043;-34
2023/05/26 11:02:05;;;;;;;;;;;;;;;23.77;46.64;99294.75;5075822;28;20035;-35
2023/05/26 11:04:40;;;;;;;5.97;3.70;;;;;;;23.47;46.89;99290.50;5085030;28;19923;-34
2023/05/26 11:07:24;;;;;;;7.00;3.78;;;;;;;23.55;46.65;99301.28;5095554;28;20036;-37
2023/05/26 11:09:56;;;;;;;7.55;3.67;;;;;;;23.75;44.90;99291.41;5062750;28;20069;-37
2023/05/26 11:12:23;;;;;;;5.10;3.35;;;;;;;24.72;42.92;99289.88;5067260;28;20027;-35
2023/05/26 11:14:48;;;;;;;6.85;3.58;;;;;;;26.40;40.71;99287.66;5090457;28;20451;-35
2023/05/26 11:17:17;;;;;;;7.50;3.58;;;;;;;27.11;40.01;99295.13;5094174;28;20190;-35
2023/05/26 11:19:53;;;;;;;3.75;3.10;;;;;;;26.69;39.16;99271.22;5099336;28;20040;-35
2023/05/26 11:22:20;;;;;;;6.13;3.85;;;;;;;26.74;39.47;99264.41;5090325;28;20101;-35
2023/05/26 11:24:46;;;;;;;5.53;4.40;;;;;;;27.07;39.47;99259.06;5072714;28;20047;-34
2023/05/26 11:27:12;;;;;;;7.78;4.53;;;;;;;27.63;39.16;99274.19;5069079;28;20044;-36
2023/05/26 11:29:38;;;;;;;7.97;4.47;;;;;;;28.64;37.69;99275.91;5089101;28;20032;-36